Terminal Aerodrome Forecast
Issued by NWS

Home | Current Version | Previous Version | Graphics & Text | Print | Product List | Glossary On
Versions: 1 2 3 4 5 6 7 8 9 10 11 12 13 14 15 16 17 18 19 20
000
FTUS43 KICT 191555 AAB
TAFRSL
TAF AMD
KRSL 191555Z 1916/2012 35015G21KT P6SM OVC012
      TEMPO 1916/1919 OVC009
     FM191900 34013KT P6SM OVC020
     FM192000 01007KT P6SM OVC025=

USA.gov is the U.S. government's official web portal to all federal, state and local government web resources and services.